Time;durP1;ratioP1;P1;durP2;ratioP2;P2;SDS_P1;SDS_P2;PMS_P1;PMS_P2;Temp;Humidity;BMP_temperature;BMP_pressure;BME280_temperature;BME280_humidity;BME280_pressure;Samples;Min_cycle;Max_cycle;Signal;HPM_P1;HPM_P2
2022/07/05 00:01:00;;;;;;;11.53;8.97;;;;;;;18.83;94.30;100024.00;4176332;28;20301;-45
2022/07/05 00:03:28;;;;;;;12.27;9.37;;;;;;;18.70;93.22;100019.41;4187140;28;20442;-47
2022/07/05 00:05:56;;;;;;;10.37;8.27;;;;;;;18.65;93.09;100028.13;4179065;28;20249;-45
2022/07/05 00:08:22;;;;;;;12.93;8.80;;;;;;;18.68;92.28;100013.41;4186698;28;20302;-45
2022/07/05 00:10:49;;;;;;;11.57;8.57;;;;;;;18.61;92.07;100017.97;4183183;28;20234;-44
2022/07/05 00:13:15;;;;;;;13.50;8.10;;;;;;;18.58;92.11;100019.22;4187335;28;20936;-46
2022/07/05 00:15:42;;;;;;;10.60;8.00;;;;;;;18.53;92.43;100022.53;4171503;28;20604;-45
2022/07/05 00:18:09;;;;;;;10.50;8.27;;;;;;;18.59;92.08;100017.34;4168307;28;20254;-45
2022/07/05 00:20:35;;;;;;;13.83;8.80;;;;;;;18.56;91.64;100019.41;4185168;28;20235;-44
2022/07/05 00:23:02;;;;;;;10.53;7.87;;;;;;;18.53;91.44;100011.75;4184263;28;20315;-48
2022/07/05 00:25:28;;;;;;;14.23;7.80;;;;;;;18.56;90.44;100016.72;4190785;28;20420;-44
2022/07/05 00:27:55;;;;;;;13.63;7.67;;;;;;;18.45;90.98;100014.66;4195172;28;20291;-43
2022/07/05 00:30:21;;;;;;;9.63;6.90;;;;;;;18.53;90.46;100010.94;4173500;28;25141;-43
2022/07/05 00:32:48;;;;;;;9.63;7.07;;;;;;;18.51;89.79;100013.00;4186534;28;20251;-43
2022/07/05 00:35:14;;;;;;;12.33;7.40;;;;;;;18.55;89.80;100009.69;4197210;28;20237;-43
2022/07/05 00:37:41;;;;;;;12.67;7.73;;;;;;;18.50;89.50;100006.78;4201141;28;20325;-44
2022/07/05 00:40:09;;;;;;;8.87;7.13;;;;;;;18.52;89.86;100015.50;4176647;28;21065;-43
2022/07/05 00:42:35;;;;;;;9.60;7.40;;;;;;;18.46;89.54;100026.25;4183314;28;20376;-46
2022/07/05 00:45:08;;;;;;;11.50;7.03;;;;;;;18.45;89.96;100030.81;4194934;28;21266;-46
2022/07/05 00:47:34;;;;;;;9.30;7.27;;;;;;;18.44;90.15;100031.84;4181758;28;21264;-42
2022/07/05 00:50:01;;;;;;;8.77;7.37;;;;;;;18.39;90.46;100042.41;4185106;28;20247;-46
2022/07/05 00:52:28;;;;;;;11.77;7.53;;;;;;;18.51;90.45;100046.16;4184751;28;20322;-52
2022/07/05 00:54:55;;;;;;;10.90;7.87;;;;;;;18.51;90.51;100048.03;4179051;28;20237;-45
2022/07/05 00:57:22;;;;;;;11.40;7.70;;;;;;;18.49;90.63;100050.09;4183467;28;20310;-45
2022/07/05 00:59:50;;;;;;;11.43;7.60;;;;;;;18.51;90.93;100056.94;4205821;28;20232;-48
2022/07/05 01:02:19;;;;;;;11.60;8.00;;;;;;;18.47;91.20;100058.41;4206945;28;20352;-46
2022/07/05 01:04:48;;;;;;;11.40;8.30;;;;;;;18.45;91.43;100048.84;4207524;28;20585;-44
2022/07/05 01:07:14;;;;;;;9.97;8.10;;;;;;;18.38;91.99;100048.00;4212055;28;20249;-75
2022/07/05 01:09:41;;;;;;;10.57;7.97;;;;;;;18.30;92.25;100051.72;4210488;28;20236;-73
2022/07/05 01:12:08;;;;;;;11.33;8.10;;;;;;;18.21;92.99;100052.97;4201277;28;20403;-67
2022/07/05 01:14:35;;;;;;;12.40;8.17;;;;;;;18.19;93.66;100066.66;4200718;28;21312;-64
2022/07/05 01:17:02;;;;;;;13.77;9.03;;;;;;;18.11;94.08;100062.25;4205398;28;22440;-63
2022/07/05 01:19:28;;;;;;;18.80;9.20;;;;;;;18.04;94.38;100069.50;4204036;28;20324;-64
2022/07/05 01:21:55;;;;;;;14.80;9.43;;;;;;;17.99;95.04;100071.97;4200662;28;20592;-64
2022/07/05 01:24:22;;;;;;;16.33;9.43;;;;;;;17.88;95.89;100067.97;4203624;28;20232;-65
2022/07/05 01:26:50;;;;;;;16.47;9.33;;;;;;;17.85;95.61;100065.69;4201161;28;20236;-63
2022/07/05 01:29:17;;;;;;;13.03;9.37;;;;;;;17.79;96.28;100073.72;4201786;28;20334;-64
2022/07/05 01:31:44;;;;;;;15.07;9.57;;;;;;;17.67;97.02;100071.59;4202283;28;20233;-64
2022/07/05 01:34:11;;;;;;;17.10;9.70;;;;;;;17.59;97.68;100066.41;4190850;28;20760;-66
2022/07/05 01:36:37;;;;;;;14.03;9.00;;;;;;;17.64;97.59;100063.09;4203843;28;20604;-67
2022/07/05 01:39:05;;;;;;;15.73;9.87;;;;;;;17.58;98.11;100067.41;4189072;28;20554;-65
2022/07/05 01:41:32;;;;;;;17.83;9.97;;;;;;;17.56;97.77;100068.63;4199436;28;20244;-65
2022/07/05 01:43:59;;;;;;;25.00;10.20;;;;;;;17.52;97.73;100066.38;4207987;28;21736;-67
2022/07/05 01:46:30;;;;;;;19.07;10.10;;;;;;;17.43;97.99;100059.47;4206805;28;21449;-66
2022/07/05 01:48:58;;;;;;;14.63;9.30;;;;;;;17.49;98.16;100076.72;4204618;28;20251;-65
2022/07/05 01:51:28;;;;;;;15.37;8.67;;;;;;;17.48;97.76;100083.91;4197634;28;20244;-64
2022/07/05 01:53:55;;;;;;;16.63;8.53;;;;;;;17.48;97.31;100081.22;4202211;28;20232;-64
2022/07/05 01:56:21;;;;;;;18.90;8.63;;;;;;;17.45;97.66;100083.50;4203901;28;20308;-65
2022/07/05 01:58:48;;;;;;;13.43;8.07;;;;;;;17.37;98.02;100080.97;4184890;28;20241;-65
2022/07/05 02:01:15;;;;;;;11.80;7.83;;;;;;;17.33;98.80;100069.78;4184021;28;20241;-65
2022/07/05 02:03:43;;;;;;;10.90;7.87;;;;;;;17.36;98.33;100072.06;4201924;28;20244;-65
2022/07/05 02:06:22;;;;;;;11.60;7.83;;;;;;;17.36;98.38;100076.63;4192444;28;20235;-65
2022/07/05 02:08:49;;;;;;;13.60;7.23;;;;;;;17.42;98.16;100075.81;4198401;28;20233;-65
2022/07/05 02:11:16;;;;;;;10.03;7.43;;;;;;;17.43;98.04;100080.19;4185974;28;20225;-65
2022/07/05 02:13:42;;;;;;;17.33;7.93;;;;;;;17.35;98.14;100077.63;4175416;28;22103;-65
2022/07/05 02:16:09;;;;;;;10.30;7.40;;;;;;;17.32;98.36;100078.03;4202278;28;20232;-65
2022/07/05 02:18:35;;;;;;;10.03;7.70;;;;;;;17.20;99.01;100072.38;4197625;28;20229;-64
2022/07/05 02:21:03;;;;;;;14.57;8.43;;;;;;;17.11;100.00;100071.69;4181494;28;20276;-65
2022/07/05 02:23:29;;;;;;;12.97;8.20;;;;;;;17.10;100.00;100075.44;4190542;28;21397;-66
2022/07/05 02:25:56;;;;;;;11.47;8.33;;;;;;;17.20;100.00;100075.06;4191309;28;20299;-66
2022/07/05 02:28:22;;;;;;;10.97;7.30;;;;;;;17.30;99.62;100080.91;4200042;28;20255;-66
2022/07/05 02:30:49;;;;;;;13.43;7.97;;;;;;;17.26;99.58;100085.06;4181822;28;22115;-66
2022/07/05 02:33:16;;;;;;;10.93;7.83;;;;;;;17.22;99.36;100084.59;4193978;28;21273;-64
2022/07/05 02:35:42;;;;;;;12.50;7.60;;;;;;;17.26;98.97;100093.94;4185711;28;20234;-65
2022/07/05 02:38:09;;;;;;;12.33;7.23;;;;;;;17.26;99.18;100091.25;4179567;28;20422;-65
2022/07/05 02:40:35;;;;;;;9.93;7.70;;;;;;;17.21;99.33;100088.34;4188691;28;20241;-66
2022/07/05 02:43:02;;;;;;;8.57;7.10;;;;;;;17.23;99.32;100088.97;4182666;28;20878;-67
2022/07/05 02:45:28;;;;;;;9.60;6.67;;;;;;;17.23;99.39;100093.50;4200031;28;22291;-65
2022/07/05 02:47:57;;;;;;;11.00;7.20;;;;;;;17.15;99.50;100083.72;4196726;28;20345;-65
2022/07/05 02:50:23;;;;;;;9.53;7.57;;;;;;;17.08;99.74;100080.16;4206243;28;20233;-64
2022/07/05 02:52:50;;;;;;;12.73;7.27;;;;;;;17.14;99.14;100075.84;4198863;28;21709;-65
2022/07/05 02:55:17;;;;;;;10.53;7.17;;;;;;;17.16;98.66;100079.19;4198966;28;21769;-67
2022/07/05 02:57:43;;;;;;;10.17;7.23;;;;;;;17.16;98.96;100090.78;4212145;28;20240;-66
2022/07/05 03:00:10;;;;;;;8.60;6.20;;;;;;;17.28;97.73;100096.44;4211453;28;20304;-65
2022/07/05 03:02:37;;;;;;;10.87;6.33;;;;;;;17.37;97.25;100102.47;4213621;28;21130;-66
2022/07/05 03:05:05;;;;;;;9.70;6.37;;;;;;;17.41;96.50;100115.34;4224481;28;20244;-66
2022/07/05 03:07:31;;;;;;;8.97;5.90;;;;;;;17.50;95.74;100122.22;4219371;28;20956;-63
2022/07/05 03:09:58;;;;;;;7.40;5.27;;;;;;;17.65;94.05;100116.75;4206868;28;20257;-65
2022/07/05 03:12:24;;;;;;;12.10;5.87;;;;;;;17.70;93.69;100125.03;4221538;28;21463;-66
2022/07/05 03:14:51;;;;;;;9.43;5.40;;;;;;;17.71;92.72;100126.69;4230344;28;20432;-66
2022/07/05 03:17:18;;;;;;;14.03;6.33;;;;;;;17.73;92.07;100130.00;4204251;28;20266;-66
2022/07/05 03:19:44;;;;;;;8.30;4.80;;;;;;;17.71;91.05;100124.00;4211144;28;20546;-65
2022/07/05 03:22:11;;;;;;;6.23;5.10;;;;;;;17.75;90.41;100126.28;4213894;28;20860;-65
2022/07/05 03:24:39;;;;;;;6.80;4.73;;;;;;;17.67;89.11;100132.66;4222546;28;20636;-64
2022/07/05 03:27:06;;;;;;;13.70;4.23;;;;;;;17.75;88.59;100137.03;4210548;28;21064;-64
2022/07/05 03:29:33;;;;;;;6.87;4.60;;;;;;;17.79;88.50;100135.63;4211171;28;20240;-65
2022/07/05 03:32:00;;;;;;;6.97;3.83;;;;;;;17.80;86.79;100137.31;4221101;28;20237;-63
2022/07/05 03:34:26;;;;;;;7.23;3.60;;;;;;;17.75;86.29;100127.13;4225777;28;20269;-66
2022/07/05 03:36:53;;;;;;;8.63;3.83;;;;;;;17.68;86.58;100127.09;4213170;28;20232;-65
2022/07/05 03:39:20;;;;;;;6.20;3.77;;;;;;;17.72;85.80;100131.06;4216397;28;21902;-66
2022/07/05 03:41:46;;;;;;;6.63;3.80;;;;;;;17.71;85.24;100121.31;4209263;28;20279;-64
2022/07/05 03:44:13;;;;;;;6.53;4.00;;;;;;;17.73;85.45;100119.25;4211497;28;20240;-64
2022/07/05 03:46:40;;;;;;;5.97;3.70;;;;;;;17.72;84.09;100122.97;4217329;28;20345;-66
2022/07/05 03:49:06;;;;;;;5.07;3.30;;;;;;;17.78;82.66;100125.91;4204252;28;20249;-65
2022/07/05 03:51:33;;;;;;;8.17;3.60;;;;;;;17.73;82.17;100130.00;4228732;28;20596;-66
2022/07/05 03:54:00;;;;;;;5.50;3.53;;;;;;;17.69;82.19;100128.75;4209139;28;20519;-67
2022/07/05 03:56:26;;;;;;;5.10;2.87;;;;;;;17.69;81.61;100128.75;4203954;28;20722;-65
2022/07/05 03:58:53;;;;;;;5.80;3.40;;;;;;;17.72;80.45;100132.88;4209445;28;20277;-65
2022/07/05 04:01:20;;;;;;;6.93;3.23;;;;;;;17.66;80.87;100133.72;4227135;28;20238;-65
2022/07/05 04:03:47;;;;;;;4.00;2.80;;;;;;;17.67;80.17;100136.19;4214238;28;20243;-66
2022/07/05 04:06:14;;;;;;;7.53;3.30;;;;;;;17.67;80.13;100125.41;4209202;28;20546;-66
2022/07/05 04:08:40;;;;;;;6.67;3.10;;;;;;;17.72;79.82;100131.06;4216145;28;20241;-68
2022/07/05 04:11:09;;;;;;;3.80;2.87;;;;;;;17.70;79.97;100130.41;4204262;28;23520;-65
2022/07/05 04:13:35;;;;;;;4.53;3.20;;;;;;;17.73;78.97;100123.81;4210511;28;20676;-66
2022/07/05 04:16:02;;;;;;;5.50;3.23;;;;;;;17.69;79.10;100136.81;4216918;28;20246;-66
2022/07/05 04:18:29;;;;;;;4.60;2.53;;;;;;;17.68;78.54;100137.03;4215759;28;21018;-65
2022/07/05 04:20:56;;;;;;;4.97;2.87;;;;;;;17.65;78.57;100146.34;4205235;28;20243;-64
2022/07/05 04:23:22;;;;;;;4.40;2.83;;;;;;;17.68;79.04;100143.25;4206573;28;23084;-65
2022/07/05 04:25:49;;;;;;;4.77;2.93;;;;;;;17.70;78.35;100151.13;4217777;28;20231;-66
2022/07/05 04:28:15;;;;;;;5.67;3.00;;;;;;;17.69;78.01;100152.97;4208427;28;20246;-66
2022/07/05 04:30:42;;;;;;;4.07;2.93;;;;;;;17.74;77.77;100144.28;4220864;28;22994;-65
2022/07/05 04:33:09;;;;;;;5.00;2.97;;;;;;;17.81;77.25;100147.06;4230470;28;21740;-67
2022/07/05 04:35:36;;;;;;;5.27;2.50;;;;;;;17.76;76.30;100130.66;4220256;28;20318;-66
2022/07/05 04:38:02;;;;;;;8.97;2.63;;;;;;;17.75;76.85;100137.91;4230685;28;20310;-67
2022/07/05 04:40:29;;;;;;;7.93;2.63;;;;;;;17.88;76.50;100142.53;4213585;28;20235;-66
2022/07/05 04:42:56;;;;;;;3.73;2.37;;;;;;;17.97;75.33;100135.94;4221920;28;21205;-64
2022/07/05 04:45:22;;;;;;;3.83;2.87;;;;;;;18.02;74.86;100141.56;4216863;28;21256;-68
2022/07/05 04:47:49;;;;;;;5.83;3.00;;;;;;;18.06;75.04;100145.53;4206282;28;20234;-65
2022/07/05 04:50:15;;;;;;;4.33;2.90;;;;;;;18.14;74.17;100153.44;4225806;28;20238;-62
2022/07/05 04:52:42;;;;;;;5.90;3.30;;;;;;;18.03;74.79;100148.63;4222995;28;21765;-63
2022/07/05 04:55:09;;;;;;;4.37;2.80;;;;;;;18.14;75.22;100155.28;4209901;28;20232;-64
2022/07/05 04:57:40;;;;;;;4.30;3.00;;;;;;;18.24;74.94;100171.91;4209480;28;20238;-64
2022/07/05 05:00:08;;;;;;;3.53;2.70;;;;;;;18.45;75.01;100165.56;4215692;28;20235;-65
2022/07/05 05:02:35;;;;;;;8.07;2.83;;;;;;;18.67;74.00;100166.22;4215664;28;20299;-63
2022/07/05 05:05:01;;;;;;;3.50;2.43;;;;;;;18.75;73.25;100170.56;4215124;28;20236;-64
2022/07/05 05:07:29;;;;;;;5.93;2.80;;;;;;;18.78;72.36;100164.81;4216898;28;20236;-66
2022/07/05 05:10:02;;;;;;;5.50;3.00;;;;;;;18.65;71.66;100160.19;4209634;28;20312;-64
2022/07/05 05:12:29;;;;;;;6.47;2.90;;;;;;;18.61;71.32;100163.50;4202688;28;20841;-63
2022/07/05 05:14:55;;;;;;;6.97;2.90;;;;;;;18.66;71.82;100161.88;4203791;28;20423;-65
2022/07/05 05:17:22;;;;;;;7.67;2.60;;;;;;;18.75;71.29;100165.19;4216056;28;20545;-66
2022/07/05 05:19:49;;;;;;;8.67;2.63;;;;;;;18.79;71.31;100166.47;4212559;28;20303;-64
2022/07/05 05:22:15;;;;;;;4.03;2.20;;;;;;;18.89;71.03;100164.19;4198635;28;20236;-65
2022/07/05 05:24:42;;;;;;;8.03;3.07;;;;;;;18.94;71.00;100164.41;4212128;28;20224;-67
2022/07/05 05:27:08;;;;;;;7.77;2.77;;;;;;;19.02;70.15;100170.66;4204209;28;20688;-63
2022/07/05 05:29:35;;;;;;;4.33;2.77;;;;;;;19.09;70.15;100179.56;4208822;28;21232;-66
2022/07/05 05:32:01;;;;;;;7.57;2.70;;;;;;;19.14;69.76;100174.38;4216395;28;20271;-66
2022/07/05 05:34:28;;;;;;;7.43;2.80;;;;;;;19.17;68.86;100177.50;4216740;28;22330;-66
2022/07/05 05:36:55;;;;;;;4.20;2.53;;;;;;;19.14;68.20;100175.19;4194265;28;22175;-68
2022/07/05 05:39:21;;;;;;;5.17;2.70;;;;;;;19.21;68.55;100185.16;4207566;28;20229;-63
2022/07/05 05:41:48;;;;;;;2.90;2.33;;;;;;;19.28;69.25;100175.22;4219153;28;21111;-65
2022/07/05 05:44:14;;;;;;;3.03;2.23;;;;;;;19.28;69.52;100170.63;4203433;28;20307;-64
2022/07/05 05:46:41;;;;;;;4.97;2.67;;;;;;;19.24;68.60;100164.00;4204640;28;22439;-65
2022/07/05 05:49:08;;;;;;;6.97;2.50;;;;;;;19.31;68.83;100158.59;4213351;28;20344;-67
2022/07/05 05:51:34;;;;;;;12.37;3.10;;;;;;;19.43;67.17;100153.38;4195111;28;20233;-68
2022/07/05 05:54:01;;;;;;;6.53;2.83;;;;;;;19.44;67.55;100165.84;4177951;28;23593;-65
2022/07/05 05:56:27;;;;;;;6.57;2.47;;;;;;;19.37;67.99;100157.75;4207543;28;20275;-64
2022/07/05 05:58:54;;;;;;;6.67;2.87;;;;;;;19.47;67.70;100151.94;4216363;28;20233;-67
2022/07/05 06:01:20;;;;;;;6.40;3.23;;;;;;;19.36;68.16;100162.34;4209192;28;20312;-77
2022/07/05 06:03:47;;;;;;;8.00;3.00;;;;;;;19.29;68.13;100166.91;4225597;28;20279;-77
2022/07/05 06:06:14;;;;;;;6.97;3.30;;;;;;;19.22;68.54;100157.97;4210457;28;20601;-77
2022/07/05 06:08:40;;;;;;;11.33;3.50;;;;;;;19.31;68.69;100154.00;4197776;28;20239;-80
2022/07/05 06:11:07;;;;;;;7.00;3.13;;;;;;;19.42;69.10;100160.66;4219079;28;23045;-78
2022/07/05 06:13:33;;;;;;;8.67;2.90;;;;;;;19.64;68.56;100155.84;4226700;28;20301;-71
2022/07/05 06:16:00;;;;;;;7.90;2.97;;;;;;;20.28;65.32;100153.38;4242770;28;21153;-81
2022/07/05 06:18:27;;;;;;;6.73;2.33;;;;;;;21.87;59.90;100162.94;4241647;28;21652;-78
2022/07/05 06:20:53;;;;;;;8.83;2.80;;;;;;;22.64;57.49;100167.81;4241471;28;22960;-76
2022/07/05 06:23:20;;;;;;;13.20;2.60;;;;;;;22.83;56.41;100170.44;4202649;28;20322;-77
2022/07/05 06:25:47;;;;;;;5.83;2.93;;;;;;;23.30;54.21;100176.00;4259652;28;26436;-80
2022/07/05 06:28:13;;;;;;;8.23;3.00;;;;;;;23.36;53.54;100183.19;4229704;28;25710;-77
2022/07/05 06:30:43;;;;;;;5.07;2.53;;;;;;;24.08;51.03;100179.38;4239788;28;21737;-82
2022/07/05 06:33:09;;;;;;;5.07;2.53;;;;;;;24.73;49.28;100194.53;4220530;28;20648;-77
2022/07/05 06:35:36;;;;;;;7.50;2.57;;;;;;;25.26;46.64;100194.13;4216005;28;20262;-78
2022/07/05 06:38:08;;;;;;;4.33;2.40;;;;;;;24.46;47.80;100183.38;4232821;28;26327;-81
2022/07/05 06:40:37;;;;;;;5.53;2.60;;;;;;;24.19;49.47;100179.34;4208422;28;21413;-75
2022/07/05 06:43:06;;;;;;;10.87;2.43;;;;;;;24.41;49.27;100193.06;4208523;28;20245;-80
2022/07/05 06:45:32;;;;;;;5.23;2.60;;;;;;;24.21;49.68;100184.53;4229255;28;20308;-72
2022/07/05 06:48:00;;;;;;;9.20;2.50;;;;;;;24.44;48.50;100198.06;4232734;28;20325;-77
2022/07/05 06:50:28;;;;;;;6.40;2.57;;;;;;;24.98;47.81;100194.13;4218872;28;20876;-76
2022/07/05 06:52:55;;;;;;;8.13;2.60;;;;;;;25.58;45.17;100206.28;4243508;28;20307;-81
2022/07/05 06:55:23;;;;;;;6.73;2.60;;;;;;;25.86;45.58;100202.59;4225772;28;20240;-66
2022/07/05 06:58:00;;;;;;;15.37;2.67;;;;;;;26.29;43.94;100207.28;4222904;28;20713;-75
2022/07/05 07:00:42;;;;;;;17.97;2.50;;;;;;;26.28;42.97;100202.09;4224393;28;20726;-72
2022/07/05 07:03:29;;;;;;;9.63;2.57;;;;;;;26.50;42.01;100219.25;4217178;28;20306;-76
2022/07/05 07:06:15;;;;;;;7.83;2.20;;;;;;;26.70;42.10;100223.31;4226757;28;21986;-67
2022/07/05 07:11:28;;;;;;;9.30;2.57;;;;;;;26.33;42.69;100223.97;4236143;28;20461;-68
2022/07/05 07:13:55;;;;;;;6.47;2.43;;;;;;;26.80;42.13;100226.13;4229055;28;20237;-65
2022/07/05 07:16:22;;;;;;;7.17;2.37;;;;;;;27.76;40.59;100241.72;4210424;28;21424;-69
2022/07/05 07:18:49;;;;;;;4.30;1.87;;;;;;;28.27;38.23;100237.63;4249583;28;20311;-66
2022/07/05 07:21:36;;;;;;;9.33;2.87;;;;;;;28.44;38.51;100240.97;4225000;28;22448;-67
2022/07/05 07:24:04;;;;;;;6.50;2.20;;;;;;;28.44;37.51;100246.44;4229214;28;20297;-69
2022/07/05 07:27:02;;;;;;;7.40;2.40;;;;;;;28.24;38.44;100240.88;4221356;28;21624;-68
2022/07/05 07:29:17;;;;;;;3.87;2.20;;;;;;;27.90;38.57;100230.34;4224043;28;20253;-66
2022/07/05 07:31:44;;;;;;;4.83;2.17;;;;;;;27.65;38.92;100233.69;4219736;28;21766;-65
2022/07/05 07:34:10;;;;;;;8.23;2.47;;;;;;;27.63;39.17;100225.78;4217621;28;20774;-68
2022/07/05 07:36:37;;;;;;;8.80;2.87;;;;;;;27.46;39.81;100222.38;4211889;28;20233;-66
2022/07/05 07:39:05;;;;;;;6.00;2.40;;;;;;;27.60;40.25;100225.47;4222277;28;21899;-69
2022/07/05 07:41:32;;;;;;;8.30;2.30;;;;;;;27.35;40.29;100227.78;4222701;28;23778;-72
2022/07/05 07:43:59;;;;;;;8.60;3.30;;;;;;;27.48;40.08;100221.00;4221870;28;20520;-68
2022/07/05 07:46:27;;;;;;;7.37;2.27;;;;;;;27.63;40.45;100231.25;4212703;28;24933;-68
2022/07/05 07:48:54;;;;;;;14.60;2.87;;;;;;;27.47;39.95;100230.31;4227797;28;20633;-70
2022/07/05 07:51:21;;;;;;;5.90;2.67;;;;;;;27.14;40.38;100223.19;4238777;28;20242;-65
2022/07/05 07:53:48;;;;;;;6.53;2.70;;;;;;;27.14;41.02;100220.47;4242927;28;20240;-65
2022/07/05 07:56:15;;;;;;;8.73;3.07;;;;;;;26.61;42.60;100222.13;4226253;28;20248;-69
2022/07/05 07:58:42;;;;;;;8.77;2.33;;;;;;;26.88;41.22;100209.31;4218692;28;20241;-65
2022/07/05 08:01:10;;;;;;;13.43;2.80;;;;;;;27.57;41.19;100222.19;4197232;28;20569;-66
2022/07/05 08:03:38;;;;;;;6.93;2.40;;;;;;;27.20;41.00;100219.44;4203149;28;20344;-63
2022/07/05 08:06:07;;;;;;;11.17;2.77;;;;;;;27.69;40.56;100223.91;4196502;28;20841;-66
2022/07/05 08:08:34;;;;;;;11.77;2.60;;;;;;;27.52;39.67;100213.94;4194679;28;20251;-58
2022/07/05 08:11:01;;;;;;;4.67;2.53;;;;;;;27.53;40.49;100215.59;4203678;28;20343;-64
2022/07/05 08:13:28;;;;;;;9.20;2.77;;;;;;;27.72;41.27;100217.88;4189575;28;20239;-64
2022/07/05 08:15:54;;;;;;;7.87;2.77;;;;;;;28.01;41.09;100215.63;4187958;28;20232;-63
2022/07/05 08:23:51;;;;;;;6.90;2.80;;;;;;;27.47;40.05;100215.84;4189201;28;20236;-65
2022/07/05 08:26:18;;;;;;;8.67;2.40;;;;;;;27.45;40.92;100215.28;4208505;28;21338;-65
2022/07/05 08:28:44;;;;;;;6.37;2.70;;;;;;;27.53;41.95;100220.22;4206617;28;22893;-63
2022/07/05 08:31:34;;;;;;;15.90;3.20;;;;;;;26.94;41.69;100223.81;4199177;28;21846;-65
2022/07/05 08:34:02;;;;;;;10.27;3.00;;;;;;;26.69;44.13;100210.72;4200374;28;21928;-63
2022/07/05 08:36:29;;;;;;;3.90;2.37;;;;;;;26.74;41.75;100219.00;4206053;28;21353;-65
2022/07/05 08:38:56;;;;;;;3.87;2.27;;;;;;;27.18;41.92;100218.84;4208810;28;20241;-65
2022/07/05 08:41:23;;;;;;;6.50;2.70;;;;;;;27.55;41.07;100223.53;4191163;28;22039;-63
2022/07/05 08:43:51;;;;;;;9.27;2.90;;;;;;;27.94;40.47;100226.00;4202266;28;20322;-63
2022/07/05 08:46:18;;;;;;;11.93;3.20;;;;;;;27.94;40.43;100217.78;4181329;28;21454;-66
2022/07/05 08:48:49;;;;;;;13.33;3.70;;;;;;;27.72;39.78;100220.63;4186474;28;20240;-64
2022/07/05 08:51:21;;;;;;;11.43;3.83;;;;;;;27.28;40.95;100223.63;4206663;28;22003;-64
2022/07/05 08:53:49;;;;;;;7.33;3.40;;;;;;;27.03;41.20;100210.53;4205914;28;20244;-65
2022/07/05 08:56:17;;;;;;;8.57;3.20;;;;;;;26.94;41.60;100204.72;4199869;28;20236;-66
2022/07/05 08:59:00;;;;;;;8.97;3.00;;;;;;;27.18;42.90;100210.63;4212642;28;20640;-65
2022/07/05 09:01:27;;;;;;;8.07;3.23;;;;;;;27.09;41.91;100209.47;4200283;28;20236;-64
2022/07/05 09:03:55;;;;;;;13.17;3.87;;;;;;;27.00;41.69;100202.88;4208818;28;20284;-64
2022/07/05 09:06:25;;;;;;;9.00;4.13;;;;;;;26.83;41.70;100201.06;4208901;28;20241;-64
2022/07/05 09:08:54;;;;;;;9.50;4.33;;;;;;;26.30;43.78;100191.75;4193396;28;20515;-65
2022/07/05 09:11:27;;;;;;;8.63;3.63;;;;;;;26.29;44.57;100195.53;4197156;28;20420;-63
2022/07/05 09:13:54;;;;;;;11.00;4.00;;;;;;;26.27;44.18;100203.13;4180835;28;21186;-64
2022/07/05 09:16:40;;;;;;;12.23;3.90;;;;;;;26.47;45.30;100203.38;4211436;28;20985;-64
2022/07/05 09:19:07;;;;;;;13.57;3.47;;;;;;;26.82;43.81;100202.13;4213121;28;21672;-63
2022/07/05 09:21:34;;;;;;;11.43;3.23;;;;;;;27.15;43.96;100208.44;4177901;28;23652;-67
2022/07/05 09:24:05;;;;;;;12.97;3.80;;;;;;;27.22;43.67;100211.81;4201663;28;20304;-63
2022/07/05 09:26:41;;;;;;;8.27;2.67;;;;;;;27.04;42.78;100209.44;4186531;28;20323;-64
2022/07/05 09:29:13;;;;;;;9.20;2.63;;;;;;;27.17;43.61;100209.00;4185213;28;20462;-65
2022/07/05 09:32:00;;;;;;;5.10;2.30;;;;;;;27.45;42.39;100218.81;4196837;28;20301;-64
2022/07/05 09:34:29;;;;;;;10.23;2.03;;;;;;;27.48;42.08;100212.81;4183136;28;20234;-62
2022/07/05 09:37:01;;;;;;;7.53;2.20;;;;;;;27.35;43.82;100208.63;4184085;28;22084;-63
2022/07/05 09:39:35;;;;;;;4.13;2.60;;;;;;;27.31;41.89;100207.50;4200325;28;22702;-64
2022/07/05 09:42:23;;;;;;;5.77;2.90;;;;;;;27.53;41.88;100203.81;4199219;28;20308;-63
2022/07/05 09:44:55;;;;;;;8.97;3.63;;;;;;;27.36;40.70;100204.00;4199964;28;20346;-63
2022/07/05 09:47:23;;;;;;;7.27;3.03;;;;;;;27.26;41.31;100202.00;4196622;28;21832;-65
2022/07/05 09:49:53;;;;;;;6.57;3.30;;;;;;;27.09;41.79;100198.53;4199505;28;20310;-65
2022/07/05 09:52:38;;;;;;;9.60;3.43;;;;;;;27.38;41.41;100195.53;4191336;28;20236;-63
2022/07/05 09:55:10;;;;;;;7.17;3.60;;;;;;;27.56;41.28;100195.94;4203759;28;20242;-64
2022/07/05 09:57:41;;;;;;;13.13;5.37;;;;;;;27.67;39.44;100196.81;4209793;28;20232;-63
2022/07/05 10:00:11;;;;;;;7.00;3.50;;;;;;;27.36;40.01;100204.81;4197589;28;21249;-64
2022/07/05 10:02:44;;;;;;;9.03;3.40;;;;;;;27.03;41.29;100194.13;4193730;28;20895;-65
2022/07/05 10:05:22;;;;;;;10.23;4.10;;;;;;;26.94;41.63;100197.31;4172654;28;20229;-65
2022/07/05 10:07:53;;;;;;;11.07;3.77;;;;;;;26.84;40.89;100197.25;4181988;28;20562;-62
2022/07/05 10:10:22;;;;;;;11.20;2.97;;;;;;;26.89;41.46;100197.28;4174788;28;20277;-62
2022/07/05 10:12:50;;;;;;;8.00;2.90;;;;;;;26.75;41.60;100190.59;4187300;28;21666;-63
2022/07/05 10:15:19;;;;;;;7.60;2.90;;;;;;;26.40;43.73;100191.84;4187367;28;20265;-64
2022/07/05 10:17:49;;;;;;;8.10;3.10;;;;;;;26.30;44.63;100183.56;4186038;28;20288;-62
2022/07/05 10:20:20;;;;;;;6.83;3.00;;;;;;;26.49;43.77;100193.03;4187821;28;20885;-59
2022/07/05 10:22:47;;;;;;;8.07;3.10;;;;;;;26.51;45.36;100195.53;4181406;28;21492;-63
2022/07/05 10:25:14;;;;;;;7.23;2.80;;;;;;;26.67;44.71;100199.28;4182937;28;22073;-62
2022/07/05 10:27:42;;;;;;;6.00;2.50;;;;;;;26.29;44.87;100185.47;4170630;28;20694;-66
2022/07/05 10:30:10;;;;;;;4.57;2.83;;;;;;;26.27;45.08;100184.03;4188401;28;20236;-62
2022/07/05 10:32:39;;;;;;;11.80;3.07;;;;;;;26.50;44.39;100189.25;4195033;28;20561;-62
2022/07/05 10:35:06;;;;;;;4.67;2.90;;;;;;;26.51;43.97;100196.34;4181451;28;25396;-62
2022/07/05 10:37:34;;;;;;;7.70;2.97;;;;;;;26.74;43.85;100197.97;4183991;28;20530;-62
2022/07/05 10:40:03;;;;;;;4.00;2.70;;;;;;;26.69;44.65;100202.53;4196586;28;20244;-59
2022/07/05 10:42:55;;;;;;;5.57;2.80;;;;;;;26.25;43.84;100195.22;4190651;28;21431;-63
2022/07/05 10:45:32;;;;;;;9.20;3.27;;;;;;;26.21;45.19;100198.72;4182971;28;23026;-61
2022/07/05 10:48:17;;;;;;;6.67;3.30;;;;;;;26.47;45.39;100194.38;4194377;28;21611;-61
2022/07/05 10:50:53;;;;;;;10.17;2.70;;;;;;;26.36;45.46;100187.97;4180530;28;20248;-62
2022/07/05 10:53:23;;;;;;;4.40;1.90;;;;;;;26.21;46.09;100193.28;4183696;28;26583;-61
2022/07/05 10:55:51;;;;;;;7.00;2.10;;;;;;;26.30;46.40;100187.09;4187409;28;21105;-61
2022/07/05 10:58:20;;;;;;;3.47;2.20;;;;;;;26.22;46.44;100189.44;4194794;28;20457;-62
2022/07/05 11:00:52;;;;;;;6.10;2.53;;;;;;;26.33;46.59;100194.78;4197350;28;21119;-61
2022/07/05 11:03:38;;;;;;;4.50;2.00;;;;;;;26.49;45.88;100195.75;4202854;28;20307;-61
2022/07/05 11:06:07;;;;;;;6.40;2.10;;;;;;;26.29;45.97;100187.34;4202898;28;25122;-66
2022/07/05 11:08:59;;;;;;;3.97;1.90;;;;;;;25.99;46.54;100194.09;4190283;28;20243;-65
2022/07/05 11:11:33;;;;;;;3.57;1.80;;;;;;;26.30;45.69;100180.81;4204354;28;21840;-65
2022/07/05 11:14:19;;;;;;;9.17;2.10;;;;;;;26.32;44.67;100189.59;4193303;28;20397;-64
2022/07/05 11:17:11;;;;;;;4.70;1.83;;;;;;;26.12;44.78;100190.16;4194508;28;20260;-64
2022/07/05 11:20:04;;;;;;;6.83;1.97;;;;;;;25.84;45.02;100188.41;4206751;28;20301;-65
2022/07/05 11:22:30;;;;;;;8.03;2.13;;;;;;;25.97;46.42;100185.34;4206316;28;20938;-64
2022/07/05 11:24:58;;;;;;;4.30;1.70;;;;;;;26.21;45.47;100180.44;4184302;28;20225;-66
2022/07/05 11:27:24;;;;;;;6.43;1.60;;;;;;;26.39;45.10;100173.84;4186453;28;21163;-63
2022/07/05 11:29:55;;;;;;;3.77;2.10;;;;;;;26.45;44.68;100172.78;4202480;28;20341;-62
2022/07/05 11:32:26;;;;;;;4.03;2.00;;;;;;;26.63;43.56;100176.28;4180093;28;20298;-63
2022/07/05 11:34:54;;;;;;;6.00;2.07;;;;;;;26.41;44.57;100177.13;4195759;28;23768;-61
2022/07/05 11:37:24;;;;;;;8.63;1.90;;;;;;;26.57;44.14;100174.59;4211447;28;20259;-65